createdAt,value
2023-03-16T00:00:27.845Z,6.30
2023-03-16T00:02:59.933Z,6.20
2023-03-16T00:05:32.176Z,6.10
2023-03-16T00:08:04.718Z,6.10
2023-03-16T00:10:36.684Z,6.10
2023-03-16T00:13:08.615Z,6.10
2023-03-16T00:15:40.888Z,6.10
2023-03-16T00:18:12.704Z,6.20
2023-03-16T00:20:44.603Z,6.10
2023-03-16T00:23:16.423Z,6.00
2023-03-16T00:25:48.247Z,6.00
2023-03-16T00:28:20.058Z,5.90
2023-03-16T00:30:52.264Z,5.90
2023-03-16T00:33:24.066Z,5.80
2023-03-16T00:36:02.354Z,5.80
2023-03-16T00:38:36.615Z,5.90
2023-03-16T00:41:09.254Z,5.90
2023-03-16T00:43:44.501Z,5.80
2023-03-16T00:46:17.814Z,5.80
2023-03-16T00:48:49.690Z,5.80
2023-03-16T00:51:22.963Z,5.90
2023-03-16T00:53:56.215Z,5.90
2023-03-16T00:56:29.080Z,5.90
2023-03-16T00:59:01.003Z,6.00
2023-03-16T01:01:32.945Z,6.00
2023-03-16T01:04:04.946Z,5.90
2023-03-16T01:06:39.960Z,5.90
2023-03-16T01:09:12.515Z,5.80
2023-03-16T01:11:45.048Z,5.80
2023-03-16T01:14:17.088Z,5.80
2023-03-16T01:16:48.994Z,5.80
2023-03-16T01:19:22.863Z,5.70
2023-03-16T01:21:54.982Z,5.70
2023-03-16T01:24:26.761Z,5.60
2023-03-16T01:26:58.730Z,5.60
2023-03-16T01:29:32.519Z,5.70
2023-03-16T01:32:05.282Z,5.70
2023-03-16T01:34:37.550Z,5.70
2023-03-16T01:37:11.416Z,5.70
2023-03-16T01:39:54.306Z,5.70
2023-03-16T01:42:26.254Z,5.70
2023-03-16T01:45:05.640Z,5.60
2023-03-16T01:47:43.070Z,5.70
2023-03-16T01:50:18.712Z,5.70
2023-03-16T01:52:51.100Z,5.70
2023-03-16T01:55:23.248Z,5.70
2023-03-16T01:57:55.821Z,5.80
2023-03-16T02:00:31.675Z,5.80
2023-03-16T02:03:19.691Z,5.80
2023-03-16T02:06:23.257Z,5.80
2023-03-16T02:09:01.643Z,5.70
2023-03-16T02:11:34.880Z,5.60
2023-03-16T02:14:12.967Z,5.60
2023-03-16T02:16:47.507Z,5.60
2023-03-16T02:19:32.011Z,5.60
2023-03-16T02:22:07.407Z,5.60
2023-03-16T02:24:39.487Z,5.60
2023-03-16T02:27:17.802Z,5.50
2023-03-16T02:29:54.129Z,5.60
2023-03-16T02:32:29.507Z,5.60
2023-03-16T02:35:02.496Z,5.60
2023-03-16T02:37:35.073Z,5.60
2023-03-16T02:40:44.976Z,5.70
2023-03-16T02:43:22.426Z,5.70
2023-03-16T02:46:07.508Z,5.70
2023-03-16T02:49:16.364Z,5.60
2023-03-16T02:51:48.612Z,5.70
2023-03-16T02:54:20.826Z,5.70
2023-03-16T02:56:52.643Z,5.60
2023-03-16T02:59:26.353Z,5.70
2023-03-16T03:01:58.557Z,5.70
2023-03-16T03:04:33.139Z,5.50
2023-03-16T03:07:05.506Z,5.50
2023-03-16T03:09:49.326Z,5.50
2023-03-16T03:12:21.127Z,5.40
2023-03-16T03:14:53.055Z,5.40
2023-03-16T03:17:30.266Z,5.40
2023-03-16T03:20:06.666Z,5.50
2023-03-16T03:22:38.517Z,5.50
2023-03-16T03:25:11.001Z,5.50
2023-03-16T03:27:44.274Z,5.50
2023-03-16T03:30:20.920Z,5.60
2023-03-16T03:32:53.209Z,5.60
2023-03-16T03:35:26.426Z,5.60
2023-03-16T03:37:59.267Z,5.70
2023-03-16T03:40:31.363Z,5.60
2023-03-16T03:43:07.106Z,5.60
2023-03-16T03:45:44.345Z,5.60
2023-03-16T03:48:16.238Z,5.60
2023-03-16T03:50:48.175Z,5.60
2023-03-16T03:53:38.644Z,5.50
2023-03-16T03:56:34.614Z,5.50
2023-03-16T03:59:06.453Z,5.50
2023-03-16T04:02:04.639Z,5.40
2023-03-16T04:04:53.857Z,5.30
2023-03-16T04:07:25.740Z,5.30
2023-03-16T04:10:02.492Z,5.30
2023-03-16T04:12:40.197Z,5.30
2023-03-16T04:15:14.800Z,5.30
2023-03-16T04:18:09.773Z,5.30
2023-03-16T04:20:42.151Z,5.30
2023-03-16T04:23:16.711Z,5.30
2023-03-16T04:25:49.983Z,5.40
2023-03-16T04:28:26.358Z,5.40
2023-03-16T04:31:02.637Z,5.30
2023-03-16T04:33:40.473Z,5.20
2023-03-16T04:36:12.503Z,5.20
2023-03-16T04:38:45.257Z,5.20
2023-03-16T04:41:18.514Z,5.10
2023-03-16T04:43:59.299Z,5.10
2023-03-16T04:46:32.451Z,5.20
2023-03-16T04:49:09.724Z,5.20
2023-03-16T04:51:42.648Z,5.20
2023-03-16T04:54:18.902Z,5.20
2023-03-16T04:56:52.384Z,5.20
2023-03-16T04:59:42.368Z,5.10
2023-03-16T05:02:25.548Z,5.00
2023-03-16T05:04:57.621Z,5.00
2023-03-16T05:07:29.952Z,5.10
2023-03-16T05:10:04.106Z,5.00
2023-03-16T05:12:36.127Z,5.00
2023-03-16T05:15:11.489Z,5.00
2023-03-16T05:17:48.099Z,5.00
2023-03-16T05:20:21.894Z,5.10
2023-03-16T05:22:57.543Z,5.20
2023-03-16T05:25:33.124Z,5.10
2023-03-16T05:28:08.809Z,5.10
2023-03-16T05:30:53.005Z,5.00
2023-03-16T05:33:29.790Z,5.10
2023-03-16T05:36:08.530Z,5.10
2023-03-16T05:38:42.912Z,5.10
2023-03-16T05:41:18.500Z,5.10
2023-03-16T05:44:01.484Z,5.10
2023-03-16T05:46:45.771Z,5.10
2023-03-16T05:49:18.022Z,5.10
2023-03-16T05:51:50.387Z,5.10
2023-03-16T05:54:23.031Z,5.10
2023-03-16T05:56:54.895Z,5.10
2023-03-16T05:59:27.236Z,5.20
2023-03-16T06:02:02.146Z,5.20
2023-03-16T06:04:34.343Z,5.40
2023-03-16T06:07:06.542Z,5.80
2023-03-16T06:09:39.258Z,6.30
2023-03-16T06:12:16.646Z,6.40
2023-03-16T06:14:49.119Z,6.40
2023-03-16T06:17:21.580Z,6.30
2023-03-16T06:19:59.767Z,6.30
2023-03-16T06:22:33.178Z,6.40
2023-03-16T06:25:10.073Z,6.40
2023-03-16T06:27:42.682Z,6.60
2023-03-16T06:30:18.109Z,7.00
2023-03-16T06:32:49.996Z,7.30
2023-03-16T06:35:21.848Z,7.40
2023-03-16T06:38:08.839Z,7.60
2023-03-16T06:41:10.015Z,8.00
2023-03-16T06:43:42.587Z,8.60
2023-03-16T06:46:16.078Z,9.10
2023-03-16T06:48:48.650Z,9.60
2023-03-16T06:51:20.603Z,9.90
2023-03-16T06:53:53.532Z,10.40
2023-03-16T06:56:31.841Z,10.70
2023-03-16T06:59:03.863Z,10.80
2023-03-16T07:01:35.905Z,10.90
2023-03-16T07:04:08.266Z,10.80
2023-03-16T07:06:40.370Z,10.60
2023-03-16T07:09:12.574Z,10.40
2023-03-16T07:11:44.889Z,10.10
2023-03-16T07:14:17.677Z,9.90
2023-03-16T07:16:50.027Z,9.80
2023-03-16T07:19:22.852Z,9.50
2023-03-16T07:21:55.164Z,9.30
2023-03-16T07:24:29.153Z,9.30
2023-03-16T07:27:01.926Z,9.30
2023-03-16T07:29:36.662Z,9.30
2023-03-16T07:32:09.895Z,9.20
2023-03-16T07:34:43.715Z,9.10
2023-03-16T07:37:18.355Z,9.10
2023-03-16T07:39:54.068Z,9.10
2023-03-16T07:42:25.964Z,9.30
2023-03-16T07:45:06.779Z,9.40
2023-03-16T07:47:38.748Z,9.70
2023-03-16T07:50:22.310Z,9.90
2023-03-16T07:52:54.851Z,10.10
2023-03-16T07:55:26.810Z,10.20
2023-03-16T07:57:59.774Z,10.20
2023-03-16T08:00:37.593Z,10.40
2023-03-16T08:03:13.955Z,10.70
2023-03-16T08:05:46.180Z,10.90
2023-03-16T08:08:22.716Z,11.10
2023-03-16T08:10:56.614Z,11.30
2023-03-16T08:13:35.460Z,11.90
2023-03-16T08:16:10.393Z,12.20
2023-03-16T08:18:44.563Z,12.40
2023-03-16T08:21:20.285Z,12.70
2023-03-16T08:23:52.270Z,13.10
2023-03-16T08:26:26.548Z,13.80
2023-03-16T08:29:03.531Z,14.20
2023-03-16T08:31:39.776Z,14.30
2023-03-16T08:34:24.614Z,14.70
2023-03-16T08:36:56.805Z,15.00
2023-03-16T08:39:29.111Z,15.30
2023-03-16T08:42:01.401Z,15.30
2023-03-16T08:44:41.426Z,15.30
2023-03-16T08:47:15.017Z,15.60
2023-03-16T08:49:49.508Z,16.20
2023-03-16T08:52:23.150Z,15.80
2023-03-16T08:55:02.834Z,15.70
2023-03-16T08:57:35.752Z,15.20
2023-03-16T09:00:15.296Z,14.30
2023-03-16T09:02:47.946Z,14.40
2023-03-16T09:05:20.042Z,14.70
2023-03-16T09:07:51.825Z,14.70
2023-03-16T09:10:23.742Z,15.10
2023-03-16T09:12:56.743Z,15.10
2023-03-16T09:15:29.229Z,15.70
2023-03-16T09:18:03.840Z,16.40
2023-03-16T09:20:35.887Z,16.90
2023-03-16T09:23:07.945Z,17.30
2023-03-16T09:25:40.043Z,16.00
2023-03-16T09:28:14.503Z,15.30
2023-03-16T09:30:48.350Z,15.30
2023-03-16T09:33:20.687Z,15.80
2023-03-16T09:35:53.284Z,16.40
2023-03-16T09:38:29.193Z,16.50
2023-03-16T09:41:07.458Z,15.50
2023-03-16T09:44:24.267Z,15.00
2023-03-16T09:47:08.136Z,15.30
2023-03-16T09:49:49.135Z,15.70
2023-03-16T09:52:27.352Z,16.30
2023-03-16T09:55:02.774Z,16.40
2023-03-16T09:57:44.996Z,16.30
2023-03-16T10:00:20.608Z,15.70
2023-03-16T10:03:13.740Z,14.90
2023-03-16T10:05:49.511Z,14.50
2023-03-16T10:08:29.164Z,14.90
2023-03-16T10:11:22.909Z,15.40
2023-03-16T10:14:17.705Z,15.80
2023-03-16T10:17:05.810Z,16.00
2023-03-16T10:20:09.170Z,16.60
2023-03-16T10:22:45.507Z,16.90
2023-03-16T10:25:29.566Z,16.10
2023-03-16T10:28:01.570Z,15.80
2023-03-16T10:30:38.770Z,15.70
2023-03-16T10:33:23.677Z,16.10
2023-03-16T10:36:21.477Z,16.30
2023-03-16T10:38:55.400Z,16.50
2023-03-16T10:41:33.700Z,15.50
2023-03-16T10:44:24.692Z,14.90
2023-03-16T10:47:05.823Z,15.30
2023-03-16T10:49:47.145Z,15.50
2023-03-16T10:52:33.284Z,15.80
2023-03-16T10:55:12.068Z,14.60
2023-03-16T10:57:53.644Z,14.20
2023-03-16T11:00:31.051Z,14.20
2023-03-16T11:03:27.546Z,13.90
2023-03-16T11:06:06.339Z,13.90
2023-03-16T11:08:39.910Z,13.90
2023-03-16T11:11:17.955Z,14.00
2023-03-16T11:13:49.746Z,13.50
2023-03-16T11:16:46.765Z,13.50
2023-03-16T11:19:21.942Z,13.70
2023-03-16T11:22:06.763Z,13.50
2023-03-16T11:24:50.443Z,13.30
2023-03-16T11:27:53.166Z,13.60
2023-03-16T11:30:31.065Z,13.40
2023-03-16T11:33:04.260Z,13.40
2023-03-16T11:35:38.401Z,13.50
2023-03-16T11:38:26.686Z,13.50
2023-03-16T11:41:04.844Z,13.80
2023-03-16T11:43:56.937Z,13.80
2023-03-16T11:46:34.825Z,13.60
2023-03-16T11:49:24.793Z,13.50
2023-03-16T11:52:05.280Z,13.40
2023-03-16T11:55:09.146Z,13.30
2023-03-16T11:58:05.811Z,13.30
2023-03-16T12:00:46.741Z,13.60
2023-03-16T12:03:25.929Z,13.60
2023-03-16T12:06:02.016Z,13.60
2023-03-16T12:09:07.953Z,13.60
2023-03-16T12:12:05.143Z,13.60
2023-03-16T12:14:46.748Z,13.70
2023-03-16T12:17:30.546Z,13.90
2023-03-16T12:20:47.486Z,14.00
2023-03-16T12:23:27.904Z,14.20
2023-03-16T12:26:03.732Z,14.30
2023-03-16T12:28:37.307Z,14.20
2023-03-16T12:31:34.720Z,14.00
2023-03-16T12:34:30.799Z,13.80
2023-03-16T12:37:27.558Z,14.00
2023-03-16T12:40:15.830Z,13.80
2023-03-16T12:42:59.182Z,13.70
2023-03-16T12:45:51.818Z,13.90
2023-03-16T12:48:36.833Z,14.00
2023-03-16T12:51:08.794Z,14.40
2023-03-16T12:53:43.447Z,14.70
2023-03-16T12:56:18.750Z,14.90
2023-03-16T12:58:51.418Z,14.70
2023-03-16T13:01:37.625Z,14.40
2023-03-16T13:04:14.863Z,14.40
2023-03-16T13:06:53.796Z,14.80
2023-03-16T13:09:28.515Z,14.90
2023-03-16T13:12:05.130Z,15.10
2023-03-16T13:14:42.687Z,15.20
2023-03-16T13:17:17.636Z,15.30
2023-03-16T13:20:29.623Z,15.40
2023-03-16T13:23:24.103Z,15.20
2023-03-16T13:26:17.982Z,14.70
2023-03-16T13:28:55.102Z,14.50
2023-03-16T13:31:41.382Z,14.60
2023-03-16T13:34:22.836Z,14.70
2023-03-16T13:36:58.021Z,14.80
2023-03-16T13:39:31.771Z,14.80
2023-03-16T13:42:20.191Z,14.80
2023-03-16T13:44:57.879Z,14.70
2023-03-16T13:47:29.742Z,14.50
2023-03-16T13:50:01.643Z,14.30
2023-03-16T13:52:35.475Z,14.30
2023-03-16T13:55:18.231Z,14.50
2023-03-16T13:57:50.268Z,14.70
2023-03-16T14:00:32.743Z,14.70
2023-03-16T14:03:17.877Z,15.00
2023-03-16T14:05:49.864Z,15.10
2023-03-16T14:08:26.303Z,15.20
2023-03-16T14:11:01.197Z,15.00
2023-03-16T14:13:38.411Z,14.70
2023-03-16T14:16:16.653Z,14.70
2023-03-16T14:19:17.037Z,14.70
2023-03-16T14:21:49.716Z,14.80
2023-03-16T14:24:30.973Z,15.00
2023-03-16T14:27:17.946Z,14.70
2023-03-16T14:29:59.076Z,14.70
2023-03-16T14:32:33.704Z,14.50
2023-03-16T14:35:33.547Z,14.40
2023-03-16T14:38:36.199Z,14.20
2023-03-16T14:41:28.208Z,14.10
2023-03-16T14:44:01.679Z,14.10
2023-03-16T14:46:40.531Z,14.30
2023-03-16T14:49:33.295Z,14.40
2023-03-16T14:52:10.776Z,14.40
2023-03-16T14:54:43.802Z,14.40
2023-03-16T14:57:19.624Z,14.40
2023-03-16T14:59:52.222Z,14.20
2023-03-16T15:02:31.356Z,14.10
2023-03-16T15:05:03.888Z,14.20
2023-03-16T15:07:41.279Z,14.40
2023-03-16T15:10:16.096Z,14.20
2023-03-16T15:12:54.185Z,14.00
2023-03-16T15:15:29.305Z,14.00
2023-03-16T15:18:01.461Z,14.00
2023-03-16T15:20:38.774Z,13.90
2023-03-16T15:23:16.384Z,13.70
2023-03-16T15:25:49.534Z,13.60
2023-03-16T15:28:23.682Z,13.50
2023-03-16T15:30:58.385Z,13.50
2023-03-16T15:33:31.636Z,13.50
2023-03-16T15:36:19.883Z,13.50
2023-03-16T15:38:54.334Z,13.50
2023-03-16T15:41:30.148Z,13.40
2023-03-16T15:44:12.277Z,13.40
2023-03-16T15:46:44.516Z,13.30
2023-03-16T15:49:17.101Z,13.30
2023-03-16T15:51:56.492Z,13.40
2023-03-16T15:54:29.412Z,13.40
2023-03-16T15:57:05.758Z,13.30
2023-03-16T15:59:38.259Z,13.30
2023-03-16T16:02:32.235Z,13.30
2023-03-16T16:05:05.997Z,13.40
2023-03-16T16:07:37.851Z,13.30
2023-03-16T16:10:13.385Z,13.40
2023-03-16T16:12:51.541Z,13.50
2023-03-16T16:15:29.422Z,13.50
2023-03-16T16:18:20.791Z,13.40
2023-03-16T16:20:53.909Z,13.40
2023-03-16T16:23:26.711Z,13.40
2023-03-16T16:26:12.713Z,13.30
2023-03-16T16:28:44.900Z,13.20
2023-03-16T16:31:17.107Z,13.20
2023-03-16T16:33:50.005Z,13.10
2023-03-16T16:36:22.124Z,13.20
2023-03-16T16:38:57.006Z,13.10
2023-03-16T16:41:32.002Z,13.00
2023-03-16T16:44:10.959Z,12.90
2023-03-16T16:46:43.872Z,12.90
2023-03-16T16:49:25.860Z,12.80
2023-03-16T16:51:58.590Z,12.80
2023-03-16T16:54:31.676Z,12.60
2023-03-16T16:57:03.951Z,12.50
2023-03-16T16:59:37.801Z,12.40
2023-03-16T17:02:31.926Z,12.30
2023-03-16T17:05:03.901Z,12.30
2023-03-16T17:07:36.174Z,12.30
2023-03-16T17:10:15.988Z,12.30
2023-03-16T17:12:53.059Z,12.30
2023-03-16T17:15:29.214Z,12.20
2023-03-16T17:18:10.873Z,12.10
2023-03-16T17:20:42.715Z,12.10
2023-03-16T17:23:31.223Z,12.00
2023-03-16T17:26:13.737Z,12.00
2023-03-16T17:28:55.632Z,11.90
2023-03-16T17:31:32.797Z,11.70
2023-03-16T17:34:20.936Z,11.50
2023-03-16T17:36:53.702Z,11.30
2023-03-16T17:39:31.089Z,11.20
2023-03-16T17:42:10.943Z,11.10
2023-03-16T17:44:46.345Z,11.00
2023-03-16T17:47:24.386Z,10.90
2023-03-16T17:49:57.044Z,10.90
2023-03-16T17:52:29.853Z,10.80
2023-03-16T17:55:03.535Z,10.80
2023-03-16T17:57:36.337Z,10.80
2023-03-16T18:00:30.298Z,10.70
2023-03-16T18:03:13.708Z,10.60
2023-03-16T18:05:46.364Z,10.50
2023-03-16T18:08:26.527Z,10.40
2023-03-16T18:11:01.409Z,10.30
2023-03-16T18:13:38.856Z,10.30
2023-03-16T18:16:16.578Z,10.30
2023-03-16T18:18:49.585Z,10.20
2023-03-16T18:21:23.447Z,10.10
2023-03-16T18:23:55.939Z,9.90
2023-03-16T18:26:28.164Z,9.70
2023-03-16T18:29:00.029Z,9.60
2023-03-16T18:31:32.044Z,9.60
2023-03-16T18:34:06.527Z,9.60
2023-03-16T18:36:39.719Z,9.60
2023-03-16T18:39:19.326Z,9.60
2023-03-16T18:41:51.355Z,9.40
2023-03-16T18:44:25.981Z,9.30
2023-03-16T18:47:03.471Z,9.20
2023-03-16T18:49:36.944Z,9.20
2023-03-16T18:52:24.343Z,9.30
2023-03-16T18:54:57.760Z,9.30
2023-03-16T18:57:31.752Z,9.20
2023-03-16T19:00:04.124Z,9.20
2023-03-16T19:02:43.807Z,9.10
2023-03-16T19:05:21.589Z,8.90
2023-03-16T19:07:54.656Z,8.90
2023-03-16T19:10:30.634Z,8.90
2023-03-16T19:13:03.126Z,8.90
2023-03-16T19:15:35.690Z,8.90
2023-03-16T19:18:08.023Z,8.90
2023-03-16T19:20:42.680Z,8.80
2023-03-16T19:23:28.627Z,8.70
2023-03-16T19:26:00.499Z,8.70
2023-03-16T19:28:41.657Z,8.60
2023-03-16T19:31:26.111Z,8.50
2023-03-16T19:33:58.575Z,8.40
2023-03-16T19:36:32.308Z,8.40
2023-03-16T19:39:04.428Z,8.40
2023-03-16T19:41:37.975Z,8.40
2023-03-16T19:44:22.314Z,8.30
2023-03-16T19:46:55.068Z,8.30
2023-03-16T19:49:31.254Z,8.30
2023-03-16T19:52:06.124Z,8.30
2023-03-16T19:54:40.468Z,8.40
2023-03-16T19:57:16.019Z,8.40
2023-03-16T19:59:55.493Z,8.30
2023-03-16T20:02:38.276Z,8.40
2023-03-16T20:05:17.769Z,8.30
2023-03-16T20:07:50.022Z,8.30
2023-03-16T20:10:24.945Z,8.20
2023-03-16T20:12:59.355Z,8.20
2023-03-16T20:15:33.642Z,8.10
2023-03-16T20:18:13.622Z,8.10
2023-03-16T20:20:46.869Z,8.00
2023-03-16T20:23:24.443Z,8.00
2023-03-16T20:26:02.647Z,7.90
2023-03-16T20:28:40.045Z,7.90
2023-03-16T20:31:27.061Z,7.90
2023-03-16T20:33:59.037Z,7.80
2023-03-16T20:36:31.146Z,7.70
2023-03-16T20:39:03.146Z,7.70
2023-03-16T20:41:36.738Z,7.70
2023-03-16T20:44:14.349Z,7.70
2023-03-16T20:46:46.954Z,7.60
2023-03-16T20:49:21.565Z,7.60
2023-03-16T20:51:54.095Z,7.60
2023-03-16T20:54:27.310Z,7.60
2023-03-16T20:57:00.387Z,7.50
2023-03-16T20:59:33.806Z,7.50
2023-03-16T21:02:27.213Z,7.50
2023-03-16T21:05:00.419Z,7.50
2023-03-16T21:07:32.458Z,7.40
2023-03-16T21:10:04.787Z,7.40
2023-03-16T21:12:42.224Z,7.40
2023-03-16T21:15:24.901Z,7.30
2023-03-16T21:17:56.724Z,7.30
2023-03-16T21:20:32.024Z,7.30
2023-03-16T21:23:04.336Z,7.30
2023-03-16T21:26:00.727Z,7.30
2023-03-16T21:28:34.598Z,7.30
2023-03-16T21:31:06.764Z,7.20
2023-03-16T21:33:41.898Z,7.20
2023-03-16T21:36:16.939Z,7.20
2023-03-16T21:38:50.183Z,7.20
2023-03-16T21:41:22.899Z,7.10
2023-03-16T21:43:55.010Z,7.10
2023-03-16T21:46:27.144Z,7.10
2023-03-16T21:48:59.094Z,7.10
2023-03-16T21:51:31.512Z,7.00
2023-03-16T21:54:03.904Z,7.00
2023-03-16T21:56:36.243Z,7.10
2023-03-16T21:59:08.359Z,7.10
2023-03-16T22:01:54.634Z,7.20
2023-03-16T22:04:32.965Z,7.20
2023-03-16T22:07:12.845Z,7.20
2023-03-16T22:09:44.658Z,7.30
2023-03-16T22:12:18.469Z,7.30
2023-03-16T22:14:50.481Z,7.20
2023-03-16T22:17:22.644Z,7.10
2023-03-16T22:19:54.496Z,7.10
2023-03-16T22:22:28.282Z,7.10
2023-03-16T22:25:00.180Z,7.20
2023-03-16T22:27:32.146Z,7.20
2023-03-16T22:30:04.606Z,7.20
2023-03-16T22:32:36.444Z,7.20
2023-03-16T22:35:27.368Z,7.10
2023-03-16T22:38:01.989Z,7.20
2023-03-16T22:40:39.143Z,7.20
2023-03-16T22:43:21.903Z,7.20
2023-03-16T22:45:56.542Z,7.10
2023-03-16T22:48:30.299Z,7.20
2023-03-16T22:51:04.815Z,7.30
2023-03-16T22:53:40.664Z,7.20
2023-03-16T22:56:13.102Z,6.90
2023-03-16T22:58:56.252Z,6.90
2023-03-16T23:01:37.594Z,6.80
2023-03-16T23:04:24.733Z,6.80
2023-03-16T23:06:57.417Z,6.70
2023-03-16T23:09:29.782Z,6.70
2023-03-16T23:12:03.248Z,6.70
2023-03-16T23:14:37.620Z,6.80
2023-03-16T23:17:22.174Z,6.80
2023-03-16T23:19:54.571Z,6.80
2023-03-16T23:22:26.524Z,6.90
2023-03-16T23:24:58.370Z,6.80
2023-03-16T23:27:30.210Z,6.70
2023-03-16T23:30:04.245Z,6.70
2023-03-16T23:32:36.157Z,6.60
2023-03-16T23:35:17.431Z,6.60
2023-03-16T23:37:50.676Z,6.60
2023-03-16T23:40:25.843Z,6.60
2023-03-16T23:43:00.661Z,6.60
2023-03-16T23:45:43.253Z,6.60
2023-03-16T23:48:20.647Z,6.50
2023-03-16T23:50:55.026Z,6.50
2023-03-16T23:53:26.982Z,6.50
2023-03-16T23:55:59.859Z,6.40
2023-03-16T23:58:31.628Z,6.40
